Terminal Aerodrome Forecast
Issued by NWS

Home | Current Version | Previous Version | Graphics & Text | Print | Product List | Glossary On
Versions: 1 2 3 4 5 6 7 8 9 10 11 12 13 14 15 16 17
000
FTUS43 KMPX 182300
TAFRNH
TAF
KRNH 182320Z 1900/1924 VRB03KT P6SM FEW250
     FM190600 16005KT P6SM SCT200
     FM191300 19008G14KT P6SM BKN150
     FM191800 22011G16KT P6SM SCT150
     FM192300 26006KT P6SM SKC=

USA.gov is the U.S. government's official web portal to all federal, state and local government web resources and services.